createdAt,value
2019-04-20T00:02:18.883Z,20.70
2019-04-20T00:04:45.554Z,9.80
2019-04-20T00:07:12.233Z,21.33
2019-04-20T00:09:40.096Z,14.90
2019-04-20T00:12:14.855Z,20.07
2019-04-20T00:14:37.177Z,13.40
2019-04-20T00:17:03.061Z,12.37
2019-04-20T00:19:37.091Z,14.50
2019-04-20T00:22:03.699Z,14.83
2019-04-20T00:24:39.288Z,24.57
2019-04-20T00:27:32.740Z,16.53
2019-04-20T00:29:50.866Z,14.10
2019-04-20T00:32:14.319Z,15.60
2019-04-20T00:34:36.541Z,20.23
2019-04-20T00:36:58.649Z,16.27
2019-04-20T00:39:25.765Z,12.30
2019-04-20T00:41:58.976Z,15.07
2019-04-20T00:44:27.838Z,15.00
2019-04-20T00:47:04.484Z,19.57
2019-04-20T00:49:30.687Z,16.33
2019-04-20T00:52:17.163Z,17.37
2019-04-20T00:54:11.522Z,11.97
2019-04-20T00:56:38.929Z,11.10
2019-04-20T00:59:18.858Z,16.43
2019-04-20T01:01:52.309Z,7.90
2019-04-20T01:04:20.291Z,11.93
2019-04-20T01:06:46.769Z,10.83
2019-04-20T01:09:09.970Z,14.17
2019-04-20T01:11:40.508Z,11.70
2019-04-20T01:14:07.824Z,14.20
2019-04-20T01:16:40.256Z,11.27
2019-04-20T01:18:59.699Z,10.40
2019-04-20T01:21:28.816Z,21.93
2019-04-20T01:23:59.559Z,12.83
2019-04-20T01:26:22.653Z,15.13
2019-04-20T01:29:03.935Z,10.23
2019-04-20T01:31:27.243Z,11.37
2019-04-20T01:33:57.272Z,10.23
2019-04-20T01:36:33.424Z,10.60
2019-04-20T01:38:56.754Z,17.87
2019-04-20T01:41:09.611Z,10.37
2019-04-20T01:43:35.839Z,21.67
2019-04-20T01:46:11.269Z,15.00
2019-04-20T01:48:33.989Z,13.07
2019-04-20T01:51:04.427Z,12.30
2019-04-20T01:53:55.715Z,13.70
2019-04-20T01:56:25.635Z,9.80
2019-04-20T01:58:59.796Z,14.47
2019-04-20T02:01:21.046Z,17.20
2019-04-20T02:03:55.072Z,15.13
2019-04-20T02:06:23.151Z,12.07
2019-04-20T02:08:51.729Z,12.90
2019-04-20T02:11:23.036Z,10.40
2019-04-20T02:13:49.846Z,8.27
2019-04-20T02:16:22.680Z,16.30
2019-04-20T02:19:00.477Z,13.97
2019-04-20T02:21:24.561Z,14.67
2019-04-20T02:23:46.426Z,13.77
2019-04-20T02:26:04.990Z,11.00
2019-04-20T02:28:53.651Z,9.37
2019-04-20T02:31:42.816Z,9.20
2019-04-20T02:34:18.286Z,10.83
2019-04-20T02:39:33.008Z,10.87
2019-04-20T02:44:24.135Z,10.47
2019-04-20T02:46:52.663Z,10.37
2019-04-20T02:49:19.720Z,8.37
2019-04-20T02:51:41.944Z,10.50
2019-04-20T02:56:45.342Z,9.20
2019-04-20T02:59:31.603Z,9.53
2019-04-20T03:01:23.361Z,9.83
2019-04-20T03:03:37.663Z,9.57
2019-04-20T03:06:09.580Z,9.77
2019-04-20T03:08:49.736Z,10.40
2019-04-20T03:11:22.433Z,11.70
2019-04-20T03:13:45.994Z,11.33
2019-04-20T03:16:11.013Z,12.60
2019-04-20T03:18:35.004Z,10.00
2019-04-20T03:21:08.169Z,9.90
2019-04-20T03:23:45.847Z,13.63
2019-04-20T03:26:06.385Z,11.90
2019-04-20T03:28:51.494Z,10.73
2019-04-20T03:31:47.341Z,11.00
2019-04-20T03:34:15.583Z,10.13
2019-04-20T03:36:25.944Z,10.40
2019-04-20T03:38:45.110Z,9.27
2019-04-20T03:41:05.184Z,10.50
2019-04-20T03:43:20.322Z,10.27
2019-04-20T03:45:54.266Z,8.90
2019-04-20T03:48:33.539Z,12.00
2019-04-20T03:51:04.644Z,10.30
2019-04-20T03:53:29.822Z,11.60
2019-04-20T03:56:03.718Z,10.73
2019-04-20T03:58:37.847Z,11.80
2019-04-20T04:01:27.456Z,12.30
2019-04-20T04:04:05.146Z,10.93
2019-04-20T04:06:23.514Z,13.37
2019-04-20T04:08:48.614Z,11.73
2019-04-20T04:11:22.063Z,14.47
2019-04-20T04:13:33.627Z,12.70
2019-04-20T04:16:04.922Z,14.20
2019-04-20T04:18:34.727Z,13.50
2019-04-20T04:21:03.063Z,13.50
2019-04-20T04:23:40.957Z,16.40
2019-04-20T04:26:08.523Z,12.97
2019-04-20T04:28:39.216Z,18.27
2019-04-20T04:31:08.205Z,13.13
2019-04-20T04:35:59.182Z,15.03
2019-04-20T04:38:35.947Z,16.97
2019-04-20T04:41:11.283Z,13.87
2019-04-20T04:43:25.449Z,16.13
2019-04-20T04:45:33.978Z,15.37
2019-04-20T04:48:02.003Z,13.70
2019-04-20T04:50:31.109Z,17.60
2019-04-20T04:53:04.620Z,15.30
2019-04-20T04:55:33.703Z,14.43
2019-04-20T04:57:51.657Z,16.17
2019-04-20T05:00:25.565Z,15.77
2019-04-20T05:02:54.402Z,16.80
2019-04-20T05:05:38.159Z,13.40
2019-04-20T05:07:58.443Z,14.37
2019-04-20T05:10:15.969Z,16.20
2019-04-20T05:12:42.279Z,15.47
2019-04-20T05:15:16.158Z,17.67
2019-04-20T05:17:57.882Z,14.97
2019-04-20T05:20:22.953Z,18.10
2019-04-20T05:22:51.067Z,16.67
2019-04-20T05:25:44.470Z,15.13
2019-04-20T05:28:20.689Z,14.07
2019-04-20T05:30:44.185Z,18.13
2019-04-20T05:33:11.646Z,19.23
2019-04-20T05:35:54.528Z,17.20
2019-04-20T05:38:34.032Z,15.27
2019-04-20T05:40:50.492Z,19.53
2019-04-20T05:43:17.695Z,22.27
2019-04-20T05:45:41.373Z,16.37
2019-04-20T05:48:11.909Z,16.77
2019-04-20T05:50:42.449Z,18.87
2019-04-20T05:53:16.220Z,22.73
2019-04-20T05:55:40.079Z,19.37
2019-04-20T05:58:08.938Z,17.33
2019-04-20T06:00:45.901Z,17.77
2019-04-20T06:03:00.498Z,16.20
2019-04-20T06:05:40.749Z,16.00
2019-04-20T06:07:59.180Z,15.13
2019-04-20T06:10:32.040Z,20.17
2019-04-20T06:12:56.679Z,19.77
2019-04-20T06:15:26.465Z,17.37
2019-04-20T06:17:58.379Z,18.60
2019-04-20T06:20:33.403Z,20.73
2019-04-20T06:23:20.846Z,17.87
2019-04-20T06:25:55.880Z,18.17
2019-04-20T06:28:12.424Z,20.47
2019-04-20T06:30:34.834Z,17.37
2019-04-20T06:34:01.330Z,18.27
2019-04-20T06:36:26.169Z,18.00
2019-04-20T06:38:56.249Z,18.53
2019-04-20T06:41:21.247Z,21.27
2019-04-20T06:43:44.164Z,18.77
2019-04-20T06:46:10.040Z,18.23
2019-04-20T06:48:44.410Z,15.60
2019-04-20T06:50:58.133Z,17.47
2019-04-20T06:53:43.431Z,17.83
2019-04-20T06:56:18.111Z,16.27
2019-04-20T06:58:46.126Z,17.27
2019-04-20T07:01:07.699Z,19.43
2019-04-20T07:03:54.283Z,20.43
2019-04-20T07:06:06.102Z,18.50
2019-04-20T07:11:02.232Z,16.63
2019-04-20T07:13:17.671Z,13.70
2019-04-20T07:15:46.440Z,14.63
2019-04-20T07:18:23.030Z,18.30
2019-04-20T07:21:25.166Z,18.90
2019-04-20T07:23:48.232Z,16.63
2019-04-20T07:26:03.976Z,20.13
2019-04-20T07:28:36.885Z,30.13
2019-04-20T07:30:55.462Z,24.47
2019-04-20T07:33:30.328Z,25.83
2019-04-20T07:35:50.736Z,18.63
2019-04-20T07:40:52.395Z,17.33
2019-04-20T07:43:17.435Z,17.87
2019-04-20T07:45:41.650Z,17.03
2019-04-20T07:48:15.047Z,21.70
2019-04-20T07:50:34.795Z,19.53
2019-04-20T07:53:04.312Z,19.53
2019-04-20T07:55:47.836Z,17.13
2019-04-20T07:57:58.981Z,20.53
2019-04-20T08:00:41.924Z,15.83
2019-04-20T08:03:16.329Z,19.07
2019-04-20T08:05:36.365Z,18.37
2019-04-20T08:08:12.718Z,18.33
2019-04-20T08:10:33.783Z,16.80
2019-04-20T08:15:42.952Z,18.83
2019-04-20T08:18:21.407Z,19.77
2019-04-20T08:20:33.628Z,14.20
2019-04-20T08:23:01.674Z,17.93
2019-04-20T08:25:20.433Z,22.87
2019-04-20T08:27:55.039Z,18.43
2019-04-20T08:31:02.450Z,16.10
2019-04-20T08:33:33.605Z,19.20
2019-04-20T08:36:09.292Z,18.83
2019-04-20T08:39:03.958Z,14.93
2019-04-20T08:40:53.991Z,18.30
2019-04-20T08:43:40.258Z,14.37
2019-04-20T08:45:52.448Z,17.40
2019-04-20T08:48:26.318Z,16.47
2019-04-20T08:50:55.590Z,13.73
2019-04-20T08:53:20.253Z,16.37
2019-04-20T08:55:38.534Z,16.67
2019-04-20T08:57:51.487Z,15.33
2019-04-20T09:00:28.893Z,14.20
2019-04-20T09:02:51.913Z,18.27
2019-04-20T09:05:30.395Z,12.60
2019-04-20T09:07:53.523Z,17.27
2019-04-20T09:10:34.383Z,15.00
2019-04-20T09:12:58.345Z,15.33
2019-04-20T09:15:10.453Z,11.97
2019-04-20T09:17:50.585Z,15.93
2019-04-20T09:20:21.521Z,12.43
2019-04-20T09:23:02.498Z,12.60
2019-04-20T09:25:48.480Z,12.27
2019-04-20T09:28:11.589Z,13.67
2019-04-20T09:30:44.042Z,14.57
2019-04-20T09:33:33.617Z,12.80
2019-04-20T09:36:02.930Z,12.47
2019-04-20T09:38:30.446Z,12.40
2019-04-20T09:41:04.784Z,12.07
2019-04-20T09:43:34.780Z,15.00
2019-04-20T09:46:05.213Z,12.67
2019-04-20T09:48:34.674Z,11.50
2019-04-20T09:51:16.806Z,11.03
2019-04-20T09:53:35.790Z,13.77
2019-04-20T09:56:06.279Z,10.57
2019-04-20T09:58:31.083Z,8.90
2019-04-20T10:01:03.340Z,10.47
2019-04-20T10:03:16.388Z,12.23
2019-04-20T10:05:43.378Z,10.32
2019-04-20T10:08:10.058Z,10.90
2019-04-20T10:10:41.690Z,11.30
2019-04-20T10:13:05.999Z,11.30
2019-04-20T10:15:33.063Z,10.85
2019-04-20T10:17:59.553Z,9.63
2019-04-20T10:20:30.945Z,9.45
2019-04-20T10:22:54.343Z,11.80
2019-04-20T10:25:20.603Z,10.53
2019-04-20T10:27:47.472Z,10.80
2019-04-20T10:30:14.685Z,10.88
2019-04-20T10:32:45.623Z,13.18
2019-04-20T10:35:09.021Z,11.50
2019-04-20T10:37:38.212Z,12.35
2019-04-20T10:40:04.828Z,9.93
2019-04-20T10:42:32.154Z,11.40
2019-04-20T10:45:00.563Z,10.00
2019-04-20T10:47:27.190Z,9.78
2019-04-20T10:49:56.521Z,9.63
2019-04-20T10:52:23.595Z,12.88
2019-04-20T10:54:50.384Z,7.95
2019-04-20T10:57:17.441Z,9.63
2019-04-20T10:59:43.771Z,11.70
2019-04-20T11:02:09.943Z,15.70
2019-04-20T11:04:36.775Z,9.15
2019-04-20T11:07:02.891Z,9.60
2019-04-20T11:09:29.082Z,15.50
2019-04-20T11:11:56.360Z,12.07
2019-04-20T11:14:28.002Z,13.50
2019-04-20T11:16:50.843Z,12.10
2019-04-20T11:19:16.930Z,8.75
2019-04-20T11:21:44.020Z,19.40
2019-04-20T11:24:10.137Z,13.20
2019-04-20T11:26:39.942Z,9.65
2019-04-20T11:29:06.391Z,9.75
2019-04-20T11:31:39.147Z,10.45
2019-04-20T11:34:00.484Z,11.53
2019-04-20T11:36:27.426Z,11.97
2019-04-20T11:38:54.450Z,14.68
2019-04-20T11:41:25.517Z,12.40
2019-04-20T11:43:49.465Z,11.40
2019-04-20T11:46:16.563Z,13.10
2019-04-20T11:48:43.481Z,16.82
2019-04-20T11:51:09.647Z,11.93
2019-04-20T11:53:36.385Z,13.20
2019-04-20T11:56:02.562Z,9.45
2019-04-20T11:58:28.483Z,9.53
2019-04-20T12:01:04.063Z,10.48
2019-04-20T12:03:35.370Z,12.78
2019-04-20T12:05:57.834Z,11.60
2019-04-20T12:08:23.001Z,12.47
2019-04-20T12:10:54.111Z,10.35
2019-04-20T12:13:16.948Z,10.90
2019-04-20T12:15:43.681Z,12.28
2019-04-20T12:18:09.686Z,10.20
2019-04-20T12:20:36.629Z,13.13
2019-04-20T12:23:02.755Z,10.98
2019-04-20T12:25:31.598Z,12.30
2019-04-20T12:27:59.005Z,10.93
2019-04-20T12:30:25.906Z,11.78
2019-04-20T12:32:56.454Z,10.15
2019-04-20T12:35:20.252Z,10.03
2019-04-20T12:37:47.239Z,8.80
2019-04-20T12:40:16.296Z,10.70
2019-04-20T12:42:44.558Z,10.43
2019-04-20T12:45:11.969Z,16.42
2019-04-20T12:47:37.953Z,12.03
2019-04-20T12:50:07.572Z,12.68
2019-04-20T12:52:34.666Z,8.75
2019-04-20T12:55:02.734Z,9.93
2019-04-20T12:57:28.947Z,11.55
2019-04-20T12:59:55.233Z,14.38
2019-04-20T13:02:21.175Z,13.08
2019-04-20T13:04:47.129Z,12.40
2019-04-20T13:07:13.106Z,11.38
2019-04-20T13:09:50.679Z,9.40
2019-04-20T13:12:24.039Z,8.85
2019-04-20T13:15:14.030Z,9.73
2019-04-20T13:17:40.083Z,7.62
2019-04-20T13:20:06.284Z,11.83
2019-04-20T13:22:32.811Z,10.93
2019-04-20T13:24:58.998Z,8.93
2019-04-20T13:27:25.079Z,10.45
2019-04-20T13:29:52.580Z,11.18
2019-04-20T13:32:20.112Z,10.35
2019-04-20T13:34:46.565Z,10.40
2019-04-20T13:37:13.860Z,9.30
2019-04-20T13:39:40.750Z,9.30
2019-04-20T13:42:15.035Z,9.90
2019-04-20T13:44:34.965Z,13.10
2019-04-20T13:47:01.044Z,11.68
2019-04-20T13:49:27.153Z,8.48
2019-04-20T13:51:53.084Z,9.08
2019-04-20T13:54:24.887Z,7.85
2019-04-20T13:56:51.076Z,9.48
2019-04-20T13:59:21.593Z,12.15
2019-04-20T14:01:55.251Z,8.20
2019-04-20T14:04:23.185Z,11.18
2019-04-20T14:06:51.060Z,12.47
2019-04-20T14:09:17.440Z,13.78
2019-04-20T14:11:43.522Z,11.45
2019-04-20T14:14:10.748Z,8.70
2019-04-20T14:16:36.960Z,8.93
2019-04-20T14:19:03.066Z,12.03
2019-04-20T14:21:32.186Z,8.33
2019-04-20T14:23:59.131Z,9.23
2019-04-20T14:26:25.219Z,10.80
2019-04-20T14:28:51.304Z,10.40
2019-04-20T14:31:17.250Z,9.93
2019-04-20T14:33:44.538Z,10.95
2019-04-20T14:36:10.822Z,9.53
2019-04-20T14:38:38.210Z,12.35
2019-04-20T14:41:04.410Z,10.78
2019-04-20T14:43:34.680Z,11.08
2019-04-20T14:46:01.062Z,12.78
2019-04-20T14:48:28.895Z,10.35
2019-04-20T14:50:55.979Z,8.95
2019-04-20T14:53:23.131Z,9.45
2019-04-20T14:55:49.402Z,9.25
2019-04-20T14:58:37.573Z,8.43
2019-04-20T15:01:06.793Z,7.83
2019-04-20T15:03:38.234Z,10.45
2019-04-20T15:06:03.313Z,12.40
2019-04-20T15:08:30.415Z,10.35
2019-04-20T15:10:56.876Z,11.90
2019-04-20T15:13:22.804Z,11.43
2019-04-20T15:15:50.627Z,10.05
2019-04-20T15:18:19.581Z,8.98
2019-04-20T15:20:47.802Z,13.40
2019-04-20T15:23:15.696Z,11.68
2019-04-20T15:25:42.684Z,11.55
2019-04-20T15:28:10.153Z,9.40
2019-04-20T15:30:36.262Z,8.73
2019-04-20T15:33:03.113Z,8.13
2019-04-20T15:35:30.181Z,7.75
2019-04-20T15:37:57.288Z,8.95
2019-04-20T15:40:23.534Z,9.08
2019-04-20T15:42:58.959Z,8.93
2019-04-20T15:45:18.923Z,10.32
2019-04-20T15:47:45.859Z,10.05
2019-04-20T15:50:13.783Z,10.10
2019-04-20T15:52:44.679Z,7.97
2019-04-20T15:55:14.310Z,12.85
2019-04-20T15:57:36.634Z,8.15
2019-04-20T16:00:04.541Z,7.85
2019-04-20T16:02:33.609Z,11.03
2019-04-20T16:05:01.542Z,6.72
2019-04-20T16:07:30.729Z,7.80
2019-04-20T16:09:56.802Z,11.68
2019-04-20T16:12:23.005Z,8.00
2019-04-20T16:14:49.413Z,7.35
2019-04-20T16:17:17.520Z,8.83
2019-04-20T16:19:51.375Z,6.42
2019-04-20T16:22:12.128Z,6.50
2019-04-20T16:24:42.931Z,6.67
2019-04-20T16:27:17.973Z,7.62
2019-04-20T16:29:44.006Z,7.97
2019-04-20T16:32:09.860Z,13.72
2019-04-20T16:34:37.170Z,9.88
2019-04-20T16:37:04.305Z,8.10
2019-04-20T16:39:30.362Z,12.07
2019-04-20T16:41:56.330Z,7.60
2019-04-20T16:44:23.105Z,8.28
2019-04-20T16:46:52.152Z,9.08
2019-04-20T16:49:19.253Z,9.68
2019-04-20T16:51:45.399Z,7.83
2019-04-20T16:54:12.033Z,8.75
2019-04-20T16:56:39.058Z,10.80
2019-04-20T16:59:09.660Z,11.08
2019-04-20T17:01:32.794Z,11.08
2019-04-20T17:04:07.009Z,13.70
2019-04-20T17:06:27.547Z,11.95
2019-04-20T17:08:54.575Z,13.78
2019-04-20T17:11:21.637Z,14.05
2019-04-20T17:13:53.057Z,12.55
2019-04-20T17:16:15.840Z,11.63
2019-04-20T17:18:45.630Z,9.13
2019-04-20T17:21:18.668Z,12.65
2019-04-20T17:23:42.206Z,12.10
2019-04-20T17:26:08.184Z,10.13
2019-04-20T17:28:42.735Z,15.28
2019-04-20T17:31:29.346Z,9.58
2019-04-20T17:34:04.967Z,9.90
2019-04-20T17:36:27.718Z,9.35
2019-04-20T17:38:55.967Z,10.45
2019-04-20T17:41:42.909Z,12.47
2019-04-20T17:44:05.681Z,8.90
2019-04-20T17:46:28.677Z,10.98
2019-04-20T17:49:00.859Z,8.73
2019-04-20T17:51:34.553Z,11.83
2019-04-20T17:53:53.804Z,14.05
2019-04-20T17:56:15.225Z,10.13
2019-04-20T17:58:43.918Z,9.98
2019-04-20T18:01:41.283Z,17.05
2019-04-20T18:04:29.692Z,10.03
2019-04-20T18:06:39.412Z,10.38
2019-04-20T18:09:03.133Z,10.05
2019-04-20T18:11:23.801Z,10.38
2019-04-20T18:14:00.625Z,12.47
2019-04-20T18:16:45.423Z,8.88
2019-04-20T18:19:03.261Z,12.30
2019-04-20T18:21:21.898Z,9.93
2019-04-20T18:23:50.328Z,12.82
2019-04-20T18:26:40.970Z,16.57
2019-04-20T18:29:22.698Z,19.57
2019-04-20T18:31:13.931Z,14.38
2019-04-20T18:33:42.521Z,11.57
2019-04-20T18:36:13.337Z,14.23
2019-04-20T18:38:42.461Z,11.12
2019-04-20T18:41:08.893Z,10.40
2019-04-20T18:43:33.024Z,13.53
2019-04-20T18:46:18.031Z,10.82
2019-04-20T18:48:48.497Z,10.85
2019-04-20T18:50:59.794Z,12.43
2019-04-20T18:53:33.633Z,16.67
2019-04-20T18:55:57.570Z,15.38
2019-04-20T18:58:22.845Z,12.35
2019-04-20T19:00:51.794Z,12.03
2019-04-20T19:03:25.761Z,27.87
2019-04-20T19:05:45.165Z,12.18
2019-04-20T19:08:13.786Z,14.58
2019-04-20T19:10:41.756Z,11.08
2019-04-20T19:13:19.297Z,10.28
2019-04-20T19:16:08.161Z,11.78
2019-04-20T19:18:50.054Z,30.00
2019-04-20T19:21:04.454Z,14.33
2019-04-20T19:23:30.352Z,12.90
2019-04-20T19:26:05.464Z,10.43
2019-04-20T19:28:29.036Z,11.08
2019-04-20T19:31:06.815Z,10.60
2019-04-20T19:33:35.577Z,11.43
2019-04-20T19:35:57.376Z,11.07
2019-04-20T19:38:21.881Z,11.17
2019-04-20T19:40:51.194Z,9.68
2019-04-20T19:43:22.073Z,10.93
2019-04-20T19:46:15.491Z,11.15
2019-04-20T19:48:22.981Z,7.93
2019-04-20T19:51:00.189Z,9.23
2019-04-20T19:53:26.325Z,10.70
2019-04-20T19:55:44.020Z,11.57
2019-04-20T19:58:11.452Z,10.17
2019-04-20T20:00:40.710Z,10.23
2019-04-20T20:03:07.773Z,9.90
2019-04-20T20:05:40.851Z,10.43
2019-04-20T20:08:11.346Z,14.30
2019-04-20T20:10:37.685Z,16.70
2019-04-20T20:13:02.593Z,15.50
2019-04-20T20:15:32.658Z,10.20
2019-04-20T20:18:16.824Z,9.20
2019-04-20T20:20:41.543Z,13.20
2019-04-20T20:22:54.864Z,13.30
2019-04-20T20:25:25.783Z,14.03
2019-04-20T20:27:53.099Z,13.47
2019-04-20T20:30:26.170Z,10.97
2019-04-20T20:33:01.539Z,10.70
2019-04-20T20:35:16.723Z,10.17
2019-04-20T20:37:47.450Z,9.90
2019-04-20T20:40:16.073Z,13.80
2019-04-20T20:42:48.427Z,11.67
2019-04-20T20:45:12.931Z,16.00
2019-04-20T20:47:51.316Z,14.13
2019-04-20T20:50:20.289Z,10.30
2019-04-20T20:52:38.189Z,9.87
2019-04-20T20:55:02.402Z,11.57
2019-04-20T20:57:25.838Z,10.43
2019-04-20T20:59:55.684Z,11.93
2019-04-20T21:02:22.419Z,11.43
2019-04-20T21:04:43.881Z,11.73
2019-04-20T21:07:10.930Z,12.17
2019-04-20T21:09:37.601Z,12.10
2019-04-20T21:12:09.139Z,13.23
2019-04-20T21:14:35.015Z,15.23
2019-04-20T21:17:05.551Z,12.70
2019-04-20T21:19:45.249Z,11.37
2019-04-20T21:22:04.472Z,12.20
2019-04-20T21:24:25.408Z,10.13
2019-04-20T21:26:52.054Z,10.80
2019-04-20T21:29:20.474Z,12.33
2019-04-20T21:31:56.963Z,10.63
2019-04-20T21:34:18.630Z,11.23
2019-04-20T21:36:41.235Z,11.57
2019-04-20T21:39:09.655Z,12.70
2019-04-20T21:41:35.705Z,11.60
2019-04-20T21:44:06.812Z,10.13
2019-04-20T21:46:37.108Z,10.13
2019-04-20T21:49:09.675Z,10.60
2019-04-20T21:51:37.347Z,10.00
2019-04-20T21:53:56.434Z,9.90
2019-04-20T21:56:21.607Z,11.03
2019-04-20T21:58:50.422Z,10.00
2019-04-20T22:01:29.789Z,11.27
2019-04-20T22:03:46.441Z,9.70
2019-04-20T22:06:13.946Z,10.83
2019-04-20T22:08:46.832Z,19.50
2019-04-20T22:11:08.150Z,15.53
2019-04-20T22:13:38.849Z,13.83
2019-04-20T22:16:06.676Z,11.07
2019-04-20T22:18:31.808Z,8.77
2019-04-20T22:21:05.945Z,8.67
2019-04-20T22:23:43.286Z,10.10
2019-04-20T22:26:07.761Z,9.90
2019-04-20T22:28:22.164Z,10.23
2019-04-20T22:30:48.463Z,11.00
2019-04-20T22:33:22.812Z,11.97
2019-04-20T22:35:50.800Z,11.27
2019-04-20T22:38:15.643Z,8.90
2019-04-20T22:40:42.501Z,9.00
2019-04-20T22:43:08.709Z,13.07
2019-04-20T22:45:41.162Z,12.03
2019-04-20T22:48:08.216Z,10.80
2019-04-20T22:50:45.342Z,14.40
2019-04-20T22:53:14.978Z,13.30
2019-04-20T22:55:52.948Z,11.23
2019-04-20T22:58:01.265Z,9.07
2019-04-20T23:00:31.054Z,9.53
2019-04-20T23:02:49.345Z,11.60
2019-04-20T23:05:15.242Z,10.67
2019-04-20T23:07:41.190Z,9.63
2019-04-20T23:10:08.748Z,9.53
2019-04-20T23:12:35.742Z,12.83
2019-04-20T23:15:02.841Z,13.33
2019-04-20T23:17:35.862Z,8.80
2019-04-20T23:20:00.942Z,8.30
2019-04-20T23:22:33.872Z,10.77
2019-04-20T23:24:53.283Z,9.47
2019-04-20T23:27:24.555Z,11.17
2019-04-20T23:29:47.194Z,18.30
2019-04-20T23:32:14.565Z,8.20
2019-04-20T23:34:40.979Z,9.37
2019-04-20T23:37:15.687Z,9.70
2019-04-20T23:39:36.455Z,10.47
2019-04-20T23:42:08.760Z,7.73
2019-04-20T23:44:47.300Z,8.13
2019-04-20T23:47:22.365Z,8.63
2019-04-20T23:50:11.258Z,8.63
2019-04-20T23:52:42.652Z,9.03
2019-04-20T23:54:58.189Z,7.50
2019-04-20T23:57:17.706Z,6.13
2019-04-20T23:59:46.123Z,9.00
